Time;durP1;ratioP1;P1;durP2;ratioP2;P2;SDS_P1;SDS_P2;PMS_P1;PMS_P2;Temp;Humidity;BMP_temperature;BMP_pressure;BME280_temperature;BME280_humidity;BME280_pressure;Samples;Min_cycle;Max_cycle;Signal;HPM_P1;HPM_P2
2022/01/05 00:01:52;;;;;;;25.55;14.82;;;;;;;-0.15;79.93;92888.69;5110565;28;20067;-33
2022/01/05 00:04:17;;;;;;;24.77;13.82;;;;;;;0.12;80.62;92879.06;5110711;28;20024;-33
2022/01/05 00:06:43;;;;;;;24.63;15.35;;;;;;;0.37;79.53;92883.47;5110520;28;20465;-33
2022/01/05 00:09:08;;;;;;;32.13;17.45;;;;;;;0.12;79.29;92881.78;5110949;28;20466;-33
2022/01/05 00:11:35;;;;;;;21.30;13.65;;;;;;;0.02;80.83;92880.56;5110925;28;20027;-33
2022/01/05 00:14:01;;;;;;;17.77;11.70;;;;;;;0.21;80.19;92862.53;5110824;28;20035;-33
2022/01/05 00:16:26;;;;;;;21.75;12.57;;;;;;;0.32;79.97;92865.22;5110568;28;20526;-33
2022/01/05 00:18:53;;;;;;;20.70;12.48;;;;;;;0.28;80.02;92870.88;5110736;28;20026;-33
2022/01/05 00:21:19;;;;;;;18.38;11.30;;;;;;;0.29;80.64;92872.38;5110560;28;20023;-33
2022/01/05 00:23:44;;;;;;;22.73;13.73;;;;;;;0.27;79.03;92872.13;5110575;28;20043;-33
2022/01/05 00:26:10;;;;;;;22.42;13.13;;;;;;;0.34;78.39;92876.31;5110355;28;20038;-33
2022/01/05 00:28:35;;;;;;;38.13;20.35;;;;;;;0.11;79.50;92883.75;5110388;28;20126;-33
2022/01/05 00:31:00;;;;;;;49.20;27.60;;;;;;;0.22;80.17;92872.16;5110564;28;20051;-33
2022/01/05 00:33:26;;;;;;;38.17;21.05;;;;;;;0.38;78.61;92876.81;5110389;28;20541;-33
2022/01/05 00:35:51;;;;;;;38.50;22.17;;;;;;;0.36;78.19;92871.13;5112782;28;20051;-33
2022/01/05 00:38:17;;;;;;;35.88;20.27;;;;;;;0.25;78.86;92890.91;5114366;28;20477;-33
2022/01/05 00:40:42;;;;;;;40.50;21.45;;;;;;;0.06;79.09;92868.22;5114494;28;20062;-33
2022/01/05 00:43:08;;;;;;;21.10;14.27;;;;;;;-0.27;80.12;92871.69;5114345;28;20027;-34
2022/01/05 00:45:34;;;;;;;20.05;12.65;;;;;;;-0.32;81.09;92883.28;5114159;28;20023;-33
2022/01/05 00:47:59;;;;;;;23.38;12.45;;;;;;;-0.14;80.64;92884.75;5114097;28;20024;-33
2022/01/05 00:50:24;;;;;;;26.65;15.93;;;;;;;-0.02;80.17;92886.97;5114220;28;20096;-33
2022/01/05 00:52:50;;;;;;;30.27;15.85;;;;;;;-0.22;79.10;92879.06;5113434;28;20027;-33
2022/01/05 00:55:15;;;;;;;31.33;15.13;;;;;;;-0.16;79.56;92874.41;5114051;28;20032;-33
2022/01/05 00:57:41;;;;;;;22.35;13.68;;;;;;;-0.33;80.63;92870.97;5112613;28;20107;-33
2022/01/05 01:00:07;;;;;;;24.98;13.20;;;;;;;-0.27;80.54;92873.66;5113849;28;20032;-33
2022/01/05 01:02:32;;;;;;;20.13;13.02;;;;;;;-0.08;80.55;92875.38;5113910;28;20071;-33
2022/01/05 01:04:58;;;;;;;23.33;14.95;;;;;;;-0.05;79.20;92873.66;5114195;28;20024;-33
2022/01/05 01:07:23;;;;;;;43.08;24.65;;;;;;;-0.06;79.30;92874.88;5113803;28;20023;-34
2022/01/05 01:09:49;;;;;;;38.20;19.23;;;;;;;0.05;79.36;92871.41;5113610;28;20110;-33
2022/01/05 01:12:15;;;;;;;28.08;17.60;;;;;;;-0.03;79.66;92861.09;5113810;28;20039;-33
2022/01/05 01:14:41;;;;;;;33.90;17.67;;;;;;;0.02;78.83;92870.47;5113693;28;20034;-34
2022/01/05 01:17:07;;;;;;;40.80;21.33;;;;;;;-0.10;78.65;92845.28;5113719;28;20028;-33
2022/01/05 01:19:32;;;;;;;50.05;25.08;;;;;;;0.02;78.34;92851.47;5113614;28;20424;-33
2022/01/05 01:21:58;;;;;;;42.20;25.42;;;;;;;0.08;78.03;92848.72;5113637;28;20027;-33
2022/01/05 01:24:24;;;;;;;42.08;23.98;;;;;;;-0.09;78.55;92833.19;5113496;28;20026;-34
2022/01/05 01:26:50;;;;;;;38.88;22.77;;;;;;;-0.02;78.96;92848.22;5113376;28;20026;-33
2022/01/05 01:29:15;;;;;;;53.55;27.67;;;;;;;-0.10;78.98;92853.44;5113770;28;20031;-33
2022/01/05 01:31:41;;;;;;;44.65;27.38;;;;;;;-0.14;77.96;92835.94;5113312;28;20024;-34
2022/01/05 01:34:06;;;;;;;47.75;25.88;;;;;;;-0.03;77.86;92846.78;5113786;28;20020;-33
2022/01/05 01:36:32;;;;;;;49.53;26.65;;;;;;;-0.44;78.78;92848.50;5113637;27;20484;-33
2022/01/05 01:38:59;;;;;;;58.22;29.85;;;;;;;-0.22;78.45;92854.66;5113648;28;20424;-33
2022/01/05 01:41:24;;;;;;;48.47;28.17;;;;;;;-0.19;78.66;92844.78;5113252;28;20032;-33
2022/01/05 01:43:50;;;;;;;39.10;22.10;;;;;;;-0.08;79.03;92834.69;5113088;28;20024;-33
2022/01/05 01:46:16;;;;;;;42.13;22.35;;;;;;;-0.11;79.69;92843.81;5112451;28;20039;-33
2022/01/05 01:48:41;;;;;;;34.25;19.75;;;;;;;-0.20;79.88;92854.94;5112638;28;20038;-33
2022/01/05 01:51:07;;;;;;;30.85;18.88;;;;;;;-0.09;78.55;92844.03;5113136;27;20027;-33
2022/01/05 01:53:33;;;;;;;39.15;18.65;;;;;;;-0.07;78.73;92846.28;5112321;28;20028;-33
2022/01/05 01:56:00;;;;;;;30.80;17.75;;;;;;;0.02;79.39;92853.44;5112907;28;20081;-33
2022/01/05 01:58:26;;;;;;;26.45;16.00;;;;;;;-0.18;79.34;92836.19;5113257;28;20481;-33
2022/01/05 02:00:51;;;;;;;32.45;16.00;;;;;;;-0.29;78.47;92819.16;5110857;28;20138;-33
2022/01/05 02:03:17;;;;;;;32.05;17.25;;;;;;;-0.21;78.47;92837.16;5111945;28;20058;-33
2022/01/05 02:05:42;;;;;;;37.30;22.48;;;;;;;-0.54;79.21;92815.47;5112504;28;20058;-33
2022/01/05 02:08:08;;;;;;;32.05;19.02;;;;;;;-0.25;79.49;92830.50;5112603;28;20027;-33
2022/01/05 02:10:34;;;;;;;36.72;20.75;;;;;;;-0.59;80.54;92839.88;5112707;28;20042;-33
2022/01/05 02:12:59;;;;;;;39.42;19.23;;;;;;;-0.58;80.21;92809.56;5111488;28;20417;-33
2022/01/05 02:15:25;;;;;;;30.33;18.95;;;;;;;-0.32;79.56;92831.00;5112633;28;20023;-33
2022/01/05 02:18:07;;;;;;;31.70;18.45;;;;;;;-0.31;79.44;92827.81;5112728;28;20027;-33
2022/01/05 02:20:33;;;;;;;38.85;22.50;;;;;;;-0.31;78.76;92827.06;5112714;28;20023;-33
2022/01/05 02:22:59;;;;;;;44.05;22.95;;;;;;;-0.32;78.79;92823.59;5112740;28;20513;-33
2022/01/05 02:25:25;;;;;;;38.92;22.80;;;;;;;-0.36;79.35;92819.66;5112330;28;20023;-33
2022/01/05 02:27:52;;;;;;;28.08;16.10;;;;;;;-0.42;79.72;92821.63;5112417;28;20054;-33
2022/01/05 02:30:23;;;;;;;17.33;10.65;;;;;;;-0.42;78.98;92827.06;5112250;28;20031;-33
2022/01/05 02:32:49;;;;;;;24.15;12.45;;;;;;;-0.66;78.65;92824.09;5112293;28;20023;-33
2022/01/05 02:35:15;;;;;;;18.27;10.07;;;;;;;-0.56;79.28;92828.06;5112104;28;20497;-33
2022/01/05 02:37:42;;;;;;;21.40;12.82;;;;;;;-0.59;79.14;92834.44;5111960;28;20050;-33
2022/01/05 02:40:15;;;;;;;16.48;10.95;;;;;;;-0.51;79.87;92824.59;5112474;28;20412;-33
2022/01/05 02:42:41;;;;;;;15.45;10.82;;;;;;;-0.38;79.14;92817.44;5111999;28;20027;-33
2022/01/05 02:45:08;;;;;;;24.88;13.00;;;;;;;-0.34;79.25;92806.34;5111926;28;20015;-33
2022/01/05 02:47:33;;;;;;;20.95;13.00;;;;;;;-0.33;78.73;92807.84;5111742;28;20030;-33
2022/01/05 02:50:00;;;;;;;27.45;15.40;;;;;;;-0.29;78.29;92800.19;5111828;28;20107;-33
2022/01/05 02:52:25;;;;;;;22.88;13.23;;;;;;;-0.53;78.08;92760.03;5111775;28;20028;-33
2022/01/05 02:54:51;;;;;;;21.90;13.00;;;;;;;-0.36;78.26;92800.69;5111162;28;20080;-33
2022/01/05 02:57:17;;;;;;;22.83;13.90;;;;;;;-0.55;79.07;92789.59;5111764;28;20027;-33
2022/01/05 02:59:42;;;;;;;27.23;14.80;;;;;;;-0.58;79.37;92784.41;5111241;28;20071;-33
2022/01/05 03:02:08;;;;;;;31.58;18.50;;;;;;;-0.50;79.05;92788.88;5110312;28;20110;-33
2022/01/05 03:04:33;;;;;;;32.30;18.70;;;;;;;-0.50;78.56;92794.28;5111596;28;20031;-33
2022/01/05 03:06:59;;;;;;;31.40;17.60;;;;;;;-0.47;78.30;92793.28;5111721;28;20055;-33
2022/01/05 03:09:24;;;;;;;29.40;16.00;;;;;;;-0.56;78.76;92785.41;5111469;28;20546;-33
2022/01/05 03:11:50;;;;;;;29.00;16.83;;;;;;;-0.46;79.47;92792.06;5111681;28;20039;-33
2022/01/05 03:14:16;;;;;;;31.92;16.40;;;;;;;-0.51;79.48;92797.47;5111720;28;20031;-33
2022/01/05 03:16:41;;;;;;;25.02;13.82;;;;;;;-0.66;78.91;92796.97;5111661;28;20023;-33
2022/01/05 03:19:07;;;;;;;27.88;18.08;;;;;;;-0.68;79.13;92794.78;5111346;28;20503;-33
2022/01/05 03:21:33;;;;;;;34.72;18.05;;;;;;;-0.70;78.95;92789.09;5111238;28;20030;-33
2022/01/05 03:23:58;;;;;;;36.13;18.95;;;;;;;-0.85;79.48;92786.63;5111466;28;20099;-33
2022/01/05 03:26:24;;;;;;;29.48;15.43;;;;;;;-0.98;80.68;92794.50;5111080;28;20115;-33
2022/01/05 03:28:49;;;;;;;23.20;15.88;;;;;;;-0.90;80.23;92790.06;5111469;28;20191;-33
2022/01/05 03:31:15;;;;;;;35.38;15.63;;;;;;;-0.70;79.57;92774.81;5111054;28;20169;-33
2022/01/05 03:33:40;;;;;;;26.50;16.13;;;;;;;-0.76;80.28;92782.94;5111262;28;20023;-33
2022/01/05 03:36:06;;;;;;;39.63;20.23;;;;;;;-0.95;80.04;92766.41;5111033;28;20416;-33
2022/01/05 03:38:31;;;;;;;59.65;31.13;;;;;;;-0.88;80.31;92778.75;5110912;28;20092;-33
2022/01/05 03:40:57;;;;;;;74.68;37.33;;;;;;;-0.66;78.95;92765.19;5110918;28;20102;-33
2022/01/05 03:43:23;;;;;;;68.68;34.20;;;;;;;-0.74;79.09;92769.66;5111157;28;20042;-33
2022/01/05 03:45:49;;;;;;;49.75;24.48;;;;;;;-0.64;79.63;92759.28;5110748;28;20412;-33
2022/01/05 03:48:16;;;;;;;26.10;13.85;;;;;;;-0.73;79.34;92754.09;5110985;28;20069;-33
2022/01/05 03:50:41;;;;;;;56.00;27.23;;;;;;;-0.63;79.14;92758.81;5110628;28;20043;-33
2022/01/05 03:53:08;;;;;;;59.92;29.02;;;;;;;-0.66;79.07;92765.19;5110121;28;20027;-33
2022/01/05 03:55:35;;;;;;;21.70;12.48;;;;;;;-0.63;78.70;92763.47;5110680;28;20038;-33
2022/01/05 03:58:01;;;;;;;23.77;13.52;;;;;;;-0.56;78.24;92763.00;5110852;28;20031;-33
2022/01/05 04:00:29;;;;;;;26.13;15.20;;;;;;;-0.53;77.44;92768.16;5110483;28;20053;-33
2022/01/05 04:02:56;;;;;;;45.00;22.73;;;;;;;-0.60;77.46;92768.63;5110931;28;20031;-33
2022/01/05 04:05:21;;;;;;;49.17;24.05;;;;;;;-0.69;77.45;92760.03;5110669;28;20110;-33
2022/01/05 04:07:47;;;;;;;50.97;28.25;;;;;;;-0.82;78.18;92760.50;5110696;28;20148;-33
2022/01/05 04:10:12;;;;;;;44.47;25.40;;;;;;;-0.75;78.25;92760.03;5110080;28;20382;-33
2022/01/05 04:12:38;;;;;;;44.55;24.95;;;;;;;-1.21;79.46;92776.00;5110565;28;20027;-33
2022/01/05 04:15:04;;;;;;;43.45;23.48;;;;;;;-1.43;80.67;92773.97;5110455;28;20035;-33
2022/01/05 04:17:30;;;;;;;45.05;24.67;;;;;;;-1.30;81.35;92774.22;5110551;28;20023;-33
2022/01/05 04:19:55;;;;;;;36.25;21.00;;;;;;;-1.21;80.56;92776.00;5110353;28;20032;-33
2022/01/05 04:22:21;;;;;;;33.47;20.27;;;;;;;-1.21;81.35;92773.28;5110512;28;20031;-33
2022/01/05 04:24:46;;;;;;;32.03;18.13;;;;;;;-1.36;81.78;92767.31;5110357;28;20027;-33
2022/01/05 04:27:12;;;;;;;31.40;18.50;;;;;;;-1.32;82.01;92775.97;5110322;28;20024;-33
2022/01/05 04:29:37;;;;;;;26.23;16.98;;;;;;;-1.12;81.71;92783.88;5110310;28;20031;-33
2022/01/05 04:32:03;;;;;;;28.15;16.10;;;;;;;-1.10;82.10;92776.75;5110307;28;20111;-33
2022/01/05 04:34:28;;;;;;;35.50;15.57;;;;;;;-1.10;82.30;92774.03;5110634;28;20030;-33
2022/01/05 04:36:54;;;;;;;22.55;14.80;;;;;;;-0.96;81.55;92773.06;5110279;28;20024;-33
2022/01/05 04:39:19;;;;;;;31.30;15.10;;;;;;;-1.12;81.63;92756.78;5110627;28;20055;-33
2022/01/05 04:41:45;;;;;;;24.52;14.30;;;;;;;-1.02;81.58;92764.19;5110153;28;20592;-33
2022/01/05 04:44:10;;;;;;;23.45;14.35;;;;;;;-0.87;80.94;92763.97;5109041;28;20117;-33
2022/01/05 04:46:36;;;;;;;25.30;15.25;;;;;;;-1.00;80.83;92755.59;5110077;28;20027;-33
2022/01/05 04:49:02;;;;;;;37.10;21.83;;;;;;;-0.97;80.16;92765.41;5110500;28;20091;-33
2022/01/05 04:51:27;;;;;;;41.28;23.23;;;;;;;-1.13;80.73;92747.19;5110223;28;20081;-33
2022/01/05 04:53:53;;;;;;;37.30;21.23;;;;;;;-1.22;81.49;92753.59;5109631;28;20592;-33
2022/01/05 04:56:18;;;;;;;22.33;14.15;;;;;;;-1.23;82.68;92751.34;5110520;28;20157;-33
2022/01/05 04:58:44;;;;;;;25.67;15.77;;;;;;;-1.03;83.30;92756.56;5110132;28;20023;-33
2022/01/05 05:01:09;;;;;;;32.70;19.08;;;;;;;-1.08;82.89;92758.03;5109937;28;20072;-33
2022/01/05 05:03:35;;;;;;;42.17;22.58;;;;;;;-1.00;82.42;92761.00;5110084;28;20076;-33
2022/01/05 05:06:00;;;;;;;61.60;33.08;;;;;;;-1.55;82.54;92758.91;5110412;28;20051;-33
2022/01/05 05:08:26;;;;;;;63.20;31.92;;;;;;;-1.43;83.26;92762.41;5110221;28;20024;-33
2022/01/05 05:10:51;;;;;;;56.33;28.58;;;;;;;-1.50;83.19;92765.56;5110072;28;20016;-33
2022/01/05 05:23:22;;;;;;;52.35;29.60;;;;;;;-1.30;83.23;92763.41;5113133;28;20077;-33
2022/01/05 05:25:48;;;;;;;59.78;31.00;;;;;;;-1.25;82.93;92765.38;5113706;28;20450;-33
2022/01/05 05:28:14;;;;;;;34.63;19.52;;;;;;;-1.44;82.90;92772.47;5113657;28;20023;-33
2022/01/05 05:30:39;;;;;;;55.40;29.95;;;;;;;-1.44;82.90;92779.84;5113460;28;20489;-33
2022/01/05 05:33:05;;;;;;;60.28;30.45;;;;;;;-1.34;82.81;92781.13;5113606;28;20027;-33
2022/01/05 05:35:31;;;;;;;46.75;26.60;;;;;;;-1.47;83.11;92776.16;5113404;28;20023;-33
2022/01/05 05:37:57;;;;;;;51.25;25.75;;;;;;;-1.42;82.77;92794.38;5113441;27;20046;-33
2022/01/05 05:40:23;;;;;;;40.53;23.63;;;;;;;-1.33;81.72;92806.97;5113345;28;20079;-33
2022/01/05 05:42:49;;;;;;;39.15;23.50;;;;;;;-1.12;81.25;92810.97;5113482;28;20023;-33
2022/01/05 05:45:15;;;;;;;41.95;23.23;;;;;;;-0.98;80.42;92821.59;5113028;28;20028;-33
2022/01/05 05:47:40;;;;;;;46.17;25.05;;;;;;;-1.32;81.04;92824.72;5113249;28;20031;-33
2022/01/05 05:50:07;;;;;;;59.40;34.90;;;;;;;-1.61;82.85;92828.53;5113008;28;20532;-33
2022/01/05 05:52:33;;;;;;;54.35;34.80;;;;;;;-1.75;84.23;92827.47;5111911;28;20019;-33
2022/01/05 05:54:58;;;;;;;60.40;35.78;;;;;;;-1.70;84.70;92823.31;5112208;28;20539;-33
2022/01/05 05:57:24;;;;;;;41.20;22.42;;;;;;;-1.68;84.66;92826.28;5113172;28;20027;-33
2022/01/05 05:59:49;;;;;;;34.05;17.38;;;;;;;-1.60;83.93;92824.59;5112818;28;20043;-33
2022/01/05 06:02:15;;;;;;;21.85;15.13;;;;;;;-1.46;83.66;92833.75;5113015;28;20028;-33
2022/01/05 06:04:40;;;;;;;29.70;16.67;;;;;;;-1.62;84.12;92825.06;5112888;28;20378;-33
2022/01/05 06:07:06;;;;;;;29.70;16.02;;;;;;;-1.49;83.77;92826.63;5112657;28;20024;-33
2022/01/05 06:09:31;;;;;;;33.70;19.77;;;;;;;-1.41;83.66;92831.09;5112761;28;20062;-33
2022/01/05 06:11:57;;;;;;;46.55;24.70;;;;;;;-1.34;82.41;92830.59;5112526;28;20416;-33
2022/01/05 06:14:22;;;;;;;39.22;21.75;;;;;;;-1.30;82.21;92831.09;5112937;28;20035;-33
2022/01/05 06:16:48;;;;;;;41.85;24.63;;;;;;;-1.12;81.75;92838.78;5112531;28;20055;-33
2022/01/05 06:19:13;;;;;;;41.08;25.90;;;;;;;-1.03;81.63;92837.81;5112496;28;20034;-33
2022/01/05 06:21:39;;;;;;;40.15;23.10;;;;;;;-1.07;81.04;92821.06;5112395;28;20036;-33
2022/01/05 06:24:05;;;;;;;40.67;24.55;;;;;;;-1.04;81.23;92841.78;5112401;28;20023;-33
2022/01/05 06:26:30;;;;;;;43.83;24.58;;;;;;;-1.11;81.22;92839.53;5112640;27;20028;-33
2022/01/05 06:28:56;;;;;;;47.70;26.67;;;;;;;-1.29;82.13;92838.00;5112521;28;20512;-33
2022/01/05 06:31:21;;;;;;;35.90;21.48;;;;;;;-1.55;83.43;92834.69;5112235;28;20413;-33
2022/01/05 06:33:47;;;;;;;33.67;19.75;;;;;;;-1.51;83.40;92846.03;5111659;28;20027;-33
2022/01/05 06:36:12;;;;;;;37.92;20.73;;;;;;;-1.40;83.50;92845.34;5110960;28;20110;-33
2022/01/05 06:38:38;;;;;;;35.97;19.05;;;;;;;-1.25;83.29;92845.88;5112338;28;20039;-33
2022/01/05 06:41:03;;;;;;;47.30;22.88;;;;;;;-1.07;83.16;92840.03;5112159;28;20027;-33
2022/01/05 06:43:30;;;;;;;96.30;41.10;;;;;;;-1.03;82.38;92833.16;5112075;28;20019;-33
2022/01/05 06:45:57;;;;;;;66.57;34.17;;;;;;;-0.93;81.41;92839.06;5111707;28;20043;-33
2022/01/05 06:48:22;;;;;;;47.30;22.48;;;;;;;-1.08;80.26;92838.53;5111922;28;20016;-33
2022/01/05 06:50:48;;;;;;;51.70;28.67;;;;;;;-0.98;80.46;92835.16;5111849;28;20028;-33
2022/01/05 06:53:14;;;;;;;123.10;62.33;;;;;;;-0.94;79.88;92827.50;5111213;28;20051;-33
2022/01/05 06:55:40;;;;;;;155.00;77.80;;;;;;;-0.68;79.60;92854.41;5111999;28;20397;-33
2022/01/05 06:58:05;;;;;;;125.93;65.82;;;;;;;-0.71;79.15;92832.97;5112003;28;20104;-33
2022/01/05 07:00:31;;;;;;;102.63;52.03;;;;;;;-0.59;78.64;92832.47;5111606;28;20050;-33
2022/01/05 07:02:57;;;;;;;93.90;48.88;;;;;;;-0.86;80.17;92852.91;5111645;28;20466;-33
2022/01/05 07:05:23;;;;;;;103.95;52.55;;;;;;;-0.88;81.65;92843.78;5111916;27;20037;-33
2022/01/05 07:07:49;;;;;;;113.03;53.70;;;;;;;-0.66;81.22;92846.53;5111338;28;20407;-33
2022/01/05 07:10:14;;;;;;;100.15;52.50;;;;;;;-0.50;80.87;92855.91;5111551;28;20104;-33
2022/01/05 07:12:40;;;;;;;105.18;48.83;;;;;;;-0.46;81.59;92846.28;5111465;28;20019;-33
2022/01/05 07:15:07;;;;;;;87.90;43.67;;;;;;;-0.36;81.23;92836.69;5111341;28;20115;-33
2022/01/05 07:17:33;;;;;;;80.10;42.72;;;;;;;-0.30;81.22;92836.66;5110260;28;20577;-33
2022/01/05 07:19:58;;;;;;;86.05;40.47;;;;;;;-0.24;81.04;92838.13;5111178;28;20019;-33
2022/01/05 07:22:24;;;;;;;145.57;66.10;;;;;;;-0.18;82.23;92835.44;5111292;28;20015;-33
2022/01/05 07:24:49;;;;;;;366.92;165.35;;;;;;;-0.07;81.48;92843.56;5111569;28;20078;-33
2022/01/05 07:27:15;;;;;;;250.20;110.13;;;;;;;0.27;81.16;92846.97;5111144;28;20016;-33
2022/01/05 07:29:40;;;;;;;225.63;104.60;;;;;;;0.43;80.49;92843.47;5111043;28;20030;-33
2022/01/05 07:32:06;;;;;;;196.70;98.05;;;;;;;0.75;79.38;92841.88;5111090;28;20056;-33
2022/01/05 07:34:32;;;;;;;101.05;51.78;;;;;;;0.88;79.57;92849.47;5111388;28;20099;-33
2022/01/05 07:36:57;;;;;;;104.00;52.40;;;;;;;1.44;79.20;92851.41;5110953;28;20503;-33
2022/01/05 07:39:23;;;;;;;189.27;89.20;;;;;;;1.78;77.30;92851.16;5111220;28;20020;-33
2022/01/05 07:41:48;;;;;;;191.73;96.05;;;;;;;2.01;76.49;92852.47;5110755;28;20111;-33
2022/01/05 07:44:14;;;;;;;132.52;66.55;;;;;;;2.05;75.78;92852.91;5110730;28;20027;-33
2022/01/05 07:46:39;;;;;;;107.65;56.80;;;;;;;2.18;75.78;92858.50;5111068;28;20506;-33
2022/01/05 07:49:05;;;;;;;95.57;47.90;;;;;;;2.12;76.61;92858.53;5111190;28;20488;-34
2022/01/05 07:51:32;;;;;;;92.30;46.50;;;;;;;2.31;77.34;92850.44;5111135;28;20020;-33
2022/01/05 07:53:58;;;;;;;82.95;41.63;;;;;;;2.90;75.80;92849.56;5110095;28;20024;-33
2022/01/05 07:56:24;;;;;;;58.72;33.05;;;;;;;3.46;73.85;92850.34;5110796;28;20100;-33
2022/01/05 07:58:50;;;;;;;58.83;34.42;;;;;;;4.40;70.82;92854.31;5111115;28;20493;-33
2022/01/05 08:01:18;;;;;;;39.85;24.70;;;;;;;4.96;67.48;92847.84;5110501;28;20058;-34
2022/01/05 08:03:47;;;;;;;33.42;20.92;;;;;;;5.94;65.31;92829.81;5110901;28;20081;-34
2022/01/05 08:06:13;;;;;;;43.10;23.52;;;;;;;6.96;62.12;92841.97;5110740;28;20027;-33
2022/01/05 08:08:39;;;;;;;35.67;21.55;;;;;;;8.10;58.66;92851.41;5110508;28;20020;-34
2022/01/05 08:11:05;;;;;;;32.58;22.15;;;;;;;9.43;53.97;92838.66;5110600;28;20034;-34
2022/01/05 08:13:30;;;;;;;27.98;17.63;;;;;;;10.87;50.09;92836.53;5110647;28;20027;-34
2022/01/05 08:15:56;;;;;;;27.33;19.13;;;;;;;11.80;47.20;92841.34;5110735;28;20023;-34
2022/01/05 08:18:22;;;;;;;45.08;27.23;;;;;;;12.16;45.96;92836.63;5109348;28;20417;-34
2022/01/05 08:20:48;;;;;;;83.20;41.42;;;;;;;12.66;44.95;92839.06;5110484;28;20020;-34
2022/01/05 08:23:21;;;;;;;68.45;34.47;;;;;;;12.94;43.88;92827.34;5110571;28;20024;-34
2022/01/05 08:25:49;;;;;;;53.03;30.65;;;;;;;13.31;42.28;92834.31;5110270;28;20027;-34
2022/01/05 08:28:15;;;;;;;39.03;23.25;;;;;;;12.53;43.77;92822.84;5110353;28;20034;-35
2022/01/05 08:30:44;;;;;;;33.10;24.83;;;;;;;12.65;44.38;92829.28;5110468;28;20023;-34
2022/01/05 08:33:09;;;;;;;27.58;19.15;;;;;;;12.51;44.11;92822.69;5110465;28;20046;-34
2022/01/05 08:35:35;;;;;;;27.40;19.17;;;;;;;12.68;44.31;92817.06;5110333;28;20059;-34
2022/01/05 08:38:01;;;;;;;21.20;15.73;;;;;;;12.61;44.51;92820.66;5110187;28;20106;-34
2022/01/05 08:40:26;;;;;;;19.58;14.98;;;;;;;13.17;44.69;92802.03;5110587;28;20076;-34
2022/01/05 08:42:54;;;;;;;23.15;16.27;;;;;;;14.73;41.85;92822.91;5109995;28;20493;-35
2022/01/05 08:45:19;;;;;;;21.13;14.20;;;;;;;15.55;39.42;92809.03;5110429;28;20553;-35
2022/01/05 08:47:48;;;;;;;16.33;13.40;;;;;;;16.09;38.89;92803.44;5110454;28;20020;-35
2022/01/05 08:50:15;;;;;;;20.07;12.93;;;;;;;16.72;37.07;92807.38;5110315;28;20496;-35
2022/01/05 08:52:41;;;;;;;26.25;18.30;;;;;;;17.18;36.38;92802.53;5110211;28;20469;-35
2022/01/05 08:55:08;;;;;;;22.58;15.40;;;;;;;18.08;34.47;92803.56;5109914;28;20067;-35
2022/01/05 08:57:34;;;;;;;21.05;16.15;;;;;;;18.29;34.13;92800.53;5113611;28;20107;-35
2022/01/05 08:59:59;;;;;;;17.30;14.27;;;;;;;18.67;33.16;92793.53;5113754;28;20173;-35
2022/01/05 09:02:25;;;;;;;23.45;17.33;;;;;;;19.10;32.51;92793.72;5114030;28;20028;-35
2022/01/05 09:04:52;;;;;;;27.98;22.15;;;;;;;19.32;31.11;92787.19;5114339;28;20292;-35
2022/01/05 09:07:18;;;;;;;23.42;19.45;;;;;;;19.58;31.67;92782.22;5114000;28;20450;-35
2022/01/05 09:09:44;;;;;;;24.65;18.20;;;;;;;20.13;31.53;92791.22;5112652;28;20034;-35
2022/01/05 09:12:10;;;;;;;23.85;17.67;;;;;;;20.48;30.54;92791.56;5113910;28;20019;-35
2022/01/05 09:14:36;;;;;;;23.83;18.45;;;;;;;20.44;30.44;92794.16;5113736;28;20118;-35
2022/01/05 09:17:02;;;;;;;20.67;16.83;;;;;;;20.27;30.77;92780.75;5113816;28;20107;-35
2022/01/05 09:19:28;;;;;;;19.60;16.60;;;;;;;20.83;30.34;92789.00;5113935;28;20098;-35
2022/01/05 09:21:54;;;;;;;23.67;15.15;;;;;;;21.24;29.75;92790.81;5113590;28;20101;-35
2022/01/05 09:24:20;;;;;;;20.83;15.73;;;;;;;21.56;29.04;92781.72;5113697;28;20032;-33
2022/01/05 09:26:45;;;;;;;28.67;19.45;;;;;;;21.41;29.44;92773.31;5113726;28;20064;-33
2022/01/05 09:29:11;;;;;;;25.90;20.00;;;;;;;21.40;29.61;92778.19;5113601;28;20386;-34
2022/01/05 09:31:37;;;;;;;23.90;18.42;;;;;;;21.87;28.56;92772.50;5113337;28;20023;-34
2022/01/05 09:34:02;;;;;;;19.70;16.08;;;;;;;22.38;28.30;92775.28;5113247;28;20019;-34
2022/01/05 09:36:43;;;;;;;21.77;14.77;;;;;;;22.75;27.28;92775.34;5113388;28;20027;-34
2022/01/05 09:41:56;;;;;;;16.92;13.70;;;;;;;20.53;28.85;92764.44;5113576;28;20031;-35
2022/01/05 09:44:27;;;;;;;21.13;16.15;;;;;;;20.74;28.92;92750.69;5112379;28;20307;-36
2022/01/05 09:47:10;;;;;;;17.85;12.25;;;;;;;20.53;30.79;92753.91;5113477;28;20105;-35
2022/01/05 09:49:38;;;;;;;11.40;9.23;;;;;;;21.46;29.02;92755.28;5113371;28;20028;-35
2022/01/05 09:52:09;;;;;;;13.77;11.10;;;;;;;22.21;28.71;92742.25;5113350;28;20019;-35
2022/01/05 09:54:36;;;;;;;16.02;12.95;;;;;;;22.93;26.99;92741.53;5112403;28;20160;-34
2022/01/05 09:57:03;;;;;;;17.67;13.73;;;;;;;23.12;26.59;92744.38;5112989;28;20020;-34
2022/01/05 09:59:29;;;;;;;12.32;9.48;;;;;;;22.68;26.47;92731.47;5112911;28;20466;-33
2022/01/05 10:01:54;;;;;;;15.15;12.02;;;;;;;22.99;26.24;92714.34;5112790;28;20034;-34
2022/01/05 10:04:20;;;;;;;14.35;11.43;;;;;;;23.46;25.93;92724.47;5111968;28;20039;-33
2022/01/05 10:06:47;;;;;;;15.85;11.10;;;;;;;23.75;25.66;92709.97;5111432;28;20235;-34
2022/01/05 10:09:13;;;;;;;11.00;8.68;;;;;;;23.92;25.79;92718.31;5111931;28;20027;-36
2022/01/05 10:11:38;;;;;;;12.27;7.80;;;;;;;24.19;25.28;92708.63;5112899;28;20026;-36
2022/01/05 10:14:06;;;;;;;6.32;5.35;;;;;;;23.95;23.73;92705.00;5112695;28;20405;-35
2022/01/05 10:16:31;;;;;;;9.10;5.72;;;;;;;23.64;25.39;92706.09;5112952;28;20023;-36
2022/01/05 10:18:57;;;;;;;5.13;4.57;;;;;;;23.24;24.42;92711.00;5112510;28;20567;-35
2022/01/05 10:21:23;;;;;;;5.43;4.05;;;;;;;23.03;24.27;92708.13;5112516;28;20076;-35
2022/01/05 10:23:50;;;;;;;5.60;4.07;;;;;;;22.48;25.71;92706.06;5111164;28;20028;-35
2022/01/05 10:26:28;;;;;;;4.45;3.97;;;;;;;22.70;25.16;92708.31;5112677;28;20027;-35
2022/01/05 10:28:57;;;;;;;7.45;5.15;;;;;;;22.83;25.37;92684.84;5112666;28;20027;-35
2022/01/05 10:31:26;;;;;;;4.15;3.15;;;;;;;23.74;23.59;92692.34;5112414;27;20032;-35
2022/01/05 10:33:52;;;;;;;4.93;4.00;;;;;;;23.73;23.92;92682.44;5112222;28;20035;-35
2022/01/05 10:36:18;;;;;;;10.90;5.25;;;;;;;24.02;23.69;92690.44;5112254;28;20016;-35
2022/01/05 10:38:51;;;;;;;3.97;3.53;;;;;;;24.03;23.48;92685.53;5112191;28;20058;-35
2022/01/05 10:41:18;;;;;;;5.03;3.10;;;;;;;23.87;22.75;92679.34;5112117;28;20404;-35
2022/01/05 10:44:29;;;;;;;4.65;3.60;;;;;;;24.45;21.36;92678.41;5112280;28;20023;-35
2022/01/05 10:46:57;;;;;;;5.05;3.33;;;;;;;22.81;22.62;92681.97;5087286;28;20039;-35
2022/01/05 10:49:28;;;;;;;4.75;3.58;;;;;;;22.54;23.83;92678.16;5091969;28;20046;-35
2022/01/05 10:51:55;;;;;;;3.88;3.13;;;;;;;23.18;23.28;92673.47;5091495;28;20032;-35
2022/01/05 10:54:26;;;;;;;8.30;3.60;;;;;;;22.59;23.58;92671.34;5105285;28;20476;-35
2022/01/05 10:56:52;;;;;;;3.38;3.08;;;;;;;22.21;24.10;92672.69;5112187;28;20428;-35
2022/01/05 10:59:33;;;;;;;7.40;3.80;;;;;;;22.05;23.26;92660.06;5111748;28;20026;-35
2022/01/05 11:01:59;;;;;;;4.22;3.78;;;;;;;22.81;23.34;92653.81;5111587;28;20042;-35
2022/01/05 11:04:24;;;;;;;4.10;3.47;;;;;;;22.79;24.09;92651.66;5111716;28;20035;-36
2022/01/05 11:07:08;;;;;;;6.00;3.47;;;;;;;23.03;23.02;92658.16;5111543;28;20031;-35
2022/01/05 11:09:34;;;;;;;3.58;2.70;;;;;;;23.24;23.12;92656.78;5111658;28;20118;-35
2022/01/05 11:11:59;;;;;;;6.10;4.70;;;;;;;23.16;23.35;92651.59;5144650;27;20118;-35
2022/01/05 11:14:30;;;;;;;5.53;4.35;;;;;;;23.06;22.82;92650.53;5111510;28;20072;-35
2022/01/05 11:17:01;;;;;;;4.32;2.67;;;;;;;23.19;22.14;92643.94;5111718;28;20466;-35
2022/01/05 11:19:29;;;;;;;3.95;2.90;;;;;;;22.93;22.56;92638.13;5111626;28;20047;-35
2022/01/05 11:21:58;;;;;;;4.50;3.22;;;;;;;23.22;23.84;92642.63;5111584;28;20453;-35
2022/01/05 11:24:24;;;;;;;4.25;3.45;;;;;;;23.48;23.10;92642.81;5111503;28;20027;-35
2022/01/05 11:26:50;;;;;;;8.60;4.63;;;;;;;23.71;22.79;92640.09;5110990;28;20508;-35
2022/01/05 11:29:16;;;;;;;3.88;3.25;;;;;;;23.41;22.61;92644.75;5111514;28;20106;-36